createdAt,value
2018-06-22T00:01:27.494Z,99.90
2018-06-22T00:03:54.335Z,99.90
2018-06-22T00:06:21.286Z,99.90
2018-06-22T00:08:48.237Z,99.90
2018-06-22T00:11:15.598Z,99.90
2018-06-22T00:13:42.549Z,99.90
2018-06-22T00:16:09.810Z,99.90
2018-06-22T00:18:36.664Z,99.90
2018-06-22T00:21:03.609Z,99.90
2018-06-22T00:23:30.556Z,99.90
2018-06-22T00:25:57.516Z,99.90
2018-06-22T00:28:24.562Z,99.90
2018-06-22T00:30:51.410Z,99.90
2018-06-22T00:33:18.360Z,99.90
2018-06-22T00:35:45.721Z,99.90
2018-06-22T00:38:12.579Z,99.90
2018-06-22T00:40:39.523Z,99.90
2018-06-22T00:43:06.370Z,99.90
2018-06-22T00:45:33.217Z,99.90
2018-06-22T00:48:00.069Z,99.90
2018-06-22T00:50:27.333Z,99.90
2018-06-22T00:52:54.276Z,99.90
2018-06-22T00:55:21.227Z,99.90
2018-06-22T00:57:48.077Z,99.90
2018-06-22T01:00:15.844Z,99.90
2018-06-22T01:02:42.796Z,99.90
2018-06-22T01:05:09.850Z,99.90
2018-06-22T01:07:38.233Z,99.90
2018-06-22T01:10:05.083Z,99.90
2018-06-22T01:12:32.034Z,99.90
2018-06-22T01:14:58.987Z,99.90
2018-06-22T01:17:25.834Z,99.90
2018-06-22T01:19:52.790Z,99.90
2018-06-22T01:22:19.720Z,99.90
2018-06-22T01:24:46.582Z,99.90
2018-06-22T01:27:13.535Z,99.90
2018-06-22T01:29:40.488Z,99.90
2018-06-22T01:32:07.437Z,99.90
2018-06-22T01:34:34.386Z,99.90
2018-06-22T01:37:01.339Z,99.90
2018-06-22T01:39:28.289Z,99.90
2018-06-22T01:41:55.239Z,99.90
2018-06-22T01:44:22.189Z,99.90
2018-06-22T01:46:49.143Z,99.90
2018-06-22T01:49:16.297Z,99.90
2018-06-22T01:51:43.250Z,99.90
2018-06-22T01:54:10.199Z,99.90
2018-06-22T01:56:37.190Z,99.90
2018-06-22T01:59:04.103Z,99.90
2018-06-22T02:01:31.051Z,99.90
2018-06-22T02:03:58.003Z,99.90
2018-06-22T02:06:24.953Z,99.90
2018-06-22T02:08:51.905Z,99.90
2018-06-22T02:11:18.857Z,99.90
2018-06-22T02:13:45.704Z,99.90
2018-06-22T02:16:12.655Z,99.90
2018-06-22T02:18:39.605Z,99.90
2018-06-22T02:21:06.558Z,99.90
2018-06-22T02:23:33.508Z,99.90
2018-06-22T02:26:00.459Z,99.90
2018-06-22T02:28:27.307Z,99.90
2018-06-22T02:30:54.259Z,99.90
2018-06-22T02:33:21.334Z,99.90
2018-06-22T02:35:48.163Z,99.90
2018-06-22T02:38:15.115Z,99.90
2018-06-22T02:40:42.104Z,99.90
2018-06-22T02:43:10.549Z,99.90
2018-06-22T02:45:37.499Z,99.90
2018-06-22T02:48:04.451Z,99.90
2018-06-22T02:50:31.399Z,99.90
2018-06-22T02:52:58.250Z,99.90
2018-06-22T02:55:25.199Z,99.90
2018-06-22T02:57:52.057Z,99.90
2018-06-22T03:00:18.911Z,99.90
2018-06-22T03:02:45.952Z,99.90
2018-06-22T03:05:12.901Z,99.90
2018-06-22T03:07:39.853Z,99.90
2018-06-22T03:10:07.212Z,99.90
2018-06-22T03:12:34.014Z,99.90
2018-06-22T03:15:01.629Z,99.90
2018-06-22T03:17:28.576Z,99.90
2018-06-22T03:19:55.527Z,99.90
2018-06-22T03:22:22.685Z,99.90
2018-06-22T03:24:50.043Z,99.90
2018-06-22T03:27:17.095Z,99.90
2018-06-22T03:29:43.943Z,99.90
2018-06-22T03:32:10.802Z,99.90
2018-06-22T03:34:37.745Z,99.90
2018-06-22T03:37:04.696Z,99.90
2018-06-22T03:39:31.664Z,99.90
2018-06-22T03:42:00.134Z,99.90
2018-06-22T03:44:27.084Z,99.90
2018-06-22T03:46:53.933Z,99.90
2018-06-22T03:49:20.780Z,99.90
2018-06-22T03:51:47.730Z,99.90
2018-06-22T03:54:14.476Z,99.90
2018-06-22T03:56:41.452Z,99.90
2018-06-22T03:59:08.380Z,99.90
2018-06-22T04:01:35.227Z,99.90
2018-06-22T04:04:02.284Z,99.90
2018-06-22T04:06:29.128Z,99.90
2018-06-22T04:08:55.911Z,99.90
2018-06-22T04:11:22.729Z,99.90
2018-06-22T04:13:49.676Z,99.90
2018-06-22T04:16:16.523Z,99.90
2018-06-22T04:18:43.373Z,99.90
2018-06-22T04:21:10.223Z,99.90
2018-06-22T04:23:37.218Z,99.90
2018-06-22T04:26:04.022Z,99.90
2018-06-22T04:28:30.972Z,99.90
2018-06-22T04:30:57.828Z,99.90
2018-06-22T04:33:25.180Z,99.90
2018-06-22T04:35:51.927Z,99.90
2018-06-22T04:38:18.878Z,99.90
2018-06-22T04:40:45.625Z,99.90
2018-06-22T04:43:12.575Z,99.90
2018-06-22T04:45:39.523Z,99.90
2018-06-22T04:48:06.374Z,99.90
2018-06-22T04:50:33.221Z,99.90
2018-06-22T04:53:00.175Z,99.90
2018-06-22T04:55:27.021Z,99.90
2018-06-22T04:57:53.767Z,99.90
2018-06-22T05:00:20.616Z,99.90
2018-06-22T05:02:47.569Z,99.90
2018-06-22T05:05:14.520Z,99.90
2018-06-22T05:07:41.471Z,99.90
2018-06-22T05:10:08.420Z,99.90
2018-06-22T05:12:35.779Z,99.90
2018-06-22T05:15:02.737Z,99.90
2018-06-22T05:17:29.580Z,99.90
2018-06-22T05:19:56.532Z,99.90
2018-06-22T05:22:23.482Z,99.90
2018-06-22T05:24:50.461Z,99.90
2018-06-22T05:27:17.283Z,99.90
2018-06-22T05:29:44.237Z,99.90
2018-06-22T05:32:11.083Z,99.90
2018-06-22T05:34:38.075Z,99.90
2018-06-22T05:37:05.602Z,99.90
2018-06-22T05:39:32.549Z,99.90
2018-06-22T05:41:59.503Z,99.90
2018-06-22T05:44:26.448Z,99.90
2018-06-22T05:46:54.116Z,99.90
2018-06-22T05:49:21.066Z,99.90
2018-06-22T05:51:48.017Z,99.90
2018-06-22T05:54:14.765Z,99.90
2018-06-22T05:56:41.769Z,99.90
2018-06-22T05:59:09.077Z,99.90
2018-06-22T06:01:36.026Z,99.90
2018-06-22T06:04:02.874Z,99.90
2018-06-22T06:06:30.541Z,99.90
2018-06-22T06:08:57.491Z,99.90
2018-06-22T06:11:24.955Z,99.90
2018-06-22T06:13:51.907Z,99.90
2018-06-22T06:16:18.859Z,99.90
2018-06-22T06:18:45.809Z,99.90
2018-06-22T06:21:13.067Z,99.90
2018-06-22T06:23:39.811Z,99.90
2018-06-22T06:26:06.762Z,99.90
2018-06-22T06:28:33.611Z,99.90
2018-06-22T06:31:00.460Z,99.90
2018-06-22T06:33:27.413Z,99.90
2018-06-22T06:35:54.567Z,99.90
2018-06-22T06:38:21.520Z,99.90
2018-06-22T06:40:48.776Z,99.90
2018-06-22T06:43:15.829Z,99.90
2018-06-22T06:45:42.782Z,99.90
2018-06-22T06:48:09.733Z,99.90
2018-06-22T06:50:36.785Z,99.90
2018-06-22T06:53:04.674Z,99.90
2018-06-22T06:55:31.610Z,99.90
2018-06-22T06:57:58.463Z,99.90
2018-06-22T07:00:25.409Z,99.90
2018-06-22T07:02:52.260Z,99.90
2018-06-22T07:05:19.307Z,99.90
2018-06-22T07:07:46.979Z,99.90
2018-06-22T07:10:13.829Z,99.90
2018-06-22T07:12:40.779Z,99.90
2018-06-22T07:15:07.624Z,99.90
2018-06-22T07:17:34.474Z,99.90
2018-06-22T07:20:01.424Z,99.90
2018-06-22T07:22:28.374Z,99.90
2018-06-22T07:24:55.226Z,99.90
2018-06-22T07:27:22.481Z,99.90
2018-06-22T07:29:49.329Z,99.90
2018-06-22T07:32:16.179Z,99.90
2018-06-22T07:34:42.925Z,99.90
2018-06-22T07:37:10.737Z,99.90
2018-06-22T07:39:38.975Z,99.90
2018-06-22T07:42:07.585Z,99.90
2018-06-22T07:44:37.048Z,99.90
2018-06-22T07:47:07.180Z,99.90
2018-06-22T07:49:36.159Z,99.90
2018-06-22T07:52:03.351Z,99.90
2018-06-22T07:54:30.203Z,99.90
2018-06-22T07:56:57.148Z,99.90
2018-06-22T07:59:23.895Z,99.90
2018-06-22T08:01:50.744Z,99.90
2018-06-22T08:04:17.592Z,99.90
2018-06-22T08:06:44.443Z,99.90
2018-06-22T08:09:11.801Z,99.90
2018-06-22T08:11:38.652Z,99.90
2018-06-22T08:14:05.500Z,99.90
2018-06-22T08:16:32.244Z,99.90
2018-06-22T08:18:59.198Z,99.90
2018-06-22T08:21:26.456Z,99.90
2018-06-22T08:23:53.302Z,99.90
2018-06-22T08:26:20.252Z,99.90
2018-06-22T08:28:47.156Z,99.90
2018-06-22T08:31:14.667Z,99.90
2018-06-22T08:33:41.515Z,99.90
2018-06-22T08:36:08.467Z,99.90
2018-06-22T08:38:35.417Z,99.90
2018-06-22T08:41:02.227Z,99.90
2018-06-22T08:43:30.142Z,99.90
2018-06-22T08:45:57.093Z,99.90
2018-06-22T08:48:24.039Z,99.90
2018-06-22T08:50:50.890Z,99.90
2018-06-22T08:53:17.736Z,99.90
2018-06-22T08:55:44.713Z,99.90
2018-06-22T08:58:13.172Z,99.90
2018-06-22T09:00:40.125Z,99.90
2018-06-22T09:03:07.180Z,99.90
2018-06-22T09:05:34.234Z,99.90
2018-06-22T09:08:01.079Z,99.90
2018-06-22T09:10:28.746Z,99.90
2018-06-22T09:12:55.595Z,99.90
2018-06-22T09:15:22.447Z,99.90
2018-06-22T09:17:49.394Z,99.90
2018-06-22T09:20:16.348Z,99.90
2018-06-22T09:22:43.306Z,99.90
2018-06-22T09:25:10.147Z,99.90
2018-06-22T09:27:36.889Z,99.90
2018-06-22T09:30:03.739Z,99.90
2018-06-22T09:32:32.532Z,99.90
2018-06-22T09:34:59.611Z,99.90
2018-06-22T09:37:27.049Z,99.90
2018-06-22T09:39:53.897Z,99.90
2018-06-22T09:42:20.747Z,99.90
2018-06-22T09:44:47.491Z,99.90
2018-06-22T09:47:14.340Z,99.90
2018-06-22T09:49:41.086Z,99.90
2018-06-22T09:52:08.755Z,99.90
2018-06-22T09:54:35.708Z,99.90
2018-06-22T09:57:02.656Z,99.90
2018-06-22T09:59:29.503Z,99.90
2018-06-22T10:01:56.659Z,99.90
2018-06-22T10:04:23.609Z,99.90
2018-06-22T10:06:50.563Z,99.90
2018-06-22T10:09:17.514Z,99.90
2018-06-22T10:11:44.463Z,99.90
2018-06-22T10:14:21.190Z,99.90
2018-06-22T10:16:48.394Z,99.90
2018-06-22T10:19:15.345Z,99.90
2018-06-22T10:21:42.193Z,99.90
2018-06-22T10:24:09.683Z,99.90
2018-06-22T10:26:49.159Z,99.90
2018-06-22T10:29:19.113Z,99.90
2018-06-22T10:31:46.072Z,99.90
2018-06-22T10:34:14.188Z,99.90
2018-06-22T10:36:41.837Z,99.90
2018-06-22T10:39:09.519Z,99.90
2018-06-22T10:41:37.194Z,99.90
2018-06-22T10:44:05.444Z,99.90
2018-06-22T10:46:33.809Z,99.90
2018-06-22T10:49:01.174Z,99.90
2018-06-22T10:51:28.997Z,99.90
2018-06-22T10:53:56.745Z,99.90
2018-06-22T10:56:24.680Z,99.90
2018-06-22T10:58:52.452Z,99.90
2018-06-22T11:01:19.915Z,99.90
2018-06-22T11:03:47.272Z,99.90
2018-06-22T11:06:14.222Z,99.90
2018-06-22T11:08:41.175Z,99.90
2018-06-22T11:11:08.340Z,99.90
2018-06-22T11:13:35.693Z,99.90
2018-06-22T11:16:02.642Z,99.90
2018-06-22T11:18:31.048Z,99.90
2018-06-22T11:20:58.079Z,99.90
2018-06-22T11:23:24.873Z,99.90
2018-06-22T11:25:51.775Z,99.90
2018-06-22T11:31:07.576Z,99.90
2018-06-22T11:33:39.880Z,99.90
2018-06-22T11:36:08.846Z,99.90
2018-06-22T11:38:35.903Z,99.90
2018-06-22T11:41:02.952Z,99.90
2018-06-22T11:43:29.801Z,99.90
2018-06-22T11:45:56.650Z,99.90
2018-06-22T11:48:32.554Z,99.90
2018-06-22T11:50:59.664Z,99.90
2018-06-22T11:53:26.612Z,99.90
2018-06-22T11:55:53.649Z,99.90
2018-06-22T11:58:20.617Z,99.90
2018-06-22T12:00:47.462Z,99.90
2018-06-22T12:03:14.212Z,99.90
2018-06-22T12:05:41.160Z,99.90
2018-06-22T12:08:08.115Z,99.90
2018-06-22T12:10:35.049Z,99.90
2018-06-22T12:13:02.017Z,99.90
2018-06-22T12:15:29.684Z,99.90
2018-06-22T12:17:56.426Z,99.90
2018-06-22T12:20:23.277Z,99.90
2018-06-22T12:22:50.226Z,99.90
2018-06-22T12:25:17.074Z,99.90
2018-06-22T12:27:43.924Z,99.90
2018-06-22T12:30:10.873Z,99.90
2018-06-22T12:32:37.729Z,99.90
2018-06-22T12:35:05.292Z,99.90
2018-06-22T12:37:32.146Z,99.90
2018-06-22T12:39:59.805Z,99.90
2018-06-22T12:42:26.856Z,99.90
2018-06-22T12:44:54.222Z,99.90
2018-06-22T12:47:22.191Z,99.90
2018-06-22T12:49:50.268Z,99.90
2018-06-22T12:52:20.841Z,99.90
2018-06-22T12:54:47.752Z,99.90
2018-06-22T12:57:14.705Z,99.90
2018-06-22T12:59:41.568Z,99.90
2018-06-22T13:02:08.708Z,99.90
2018-06-22T13:04:35.969Z,99.90
2018-06-22T13:07:04.311Z,99.90
2018-06-22T13:09:32.926Z,99.90
2018-06-22T13:12:02.404Z,97.80
2018-06-22T13:14:31.761Z,97.80
2018-06-22T13:16:58.923Z,98.10
2018-06-22T13:19:26.782Z,95.90
2018-06-22T13:21:54.556Z,95.90
2018-06-22T13:24:21.505Z,93.20
2018-06-22T13:26:48.348Z,91.60
2018-06-22T13:29:15.202Z,92.00
2018-06-22T13:31:42.248Z,85.20
2018-06-22T13:34:09.508Z,82.80
2018-06-22T13:36:36.662Z,82.40
2018-06-22T13:39:03.511Z,78.50
2018-06-22T13:41:30.359Z,79.60
2018-06-22T13:43:57.312Z,80.50
2018-06-22T13:46:24.370Z,82.90
2018-06-22T13:48:51.315Z,84.60
2018-06-22T13:51:18.181Z,75.30
2018-06-22T13:53:45.217Z,75.10
2018-06-22T13:56:12.066Z,75.20
2018-06-22T13:58:39.018Z,75.70
2018-06-22T14:01:05.967Z,79.10
2018-06-22T14:03:33.530Z,84.20
2018-06-22T14:06:21.390Z,83.20
2018-06-22T14:08:48.514Z,80.90
2018-06-22T14:11:15.569Z,78.50
2018-06-22T14:13:42.724Z,80.20
2018-06-22T14:16:09.778Z,77.00
2018-06-22T14:18:36.728Z,78.40
2018-06-22T14:21:05.011Z,80.60
2018-06-22T14:23:34.801Z,75.30
2018-06-22T14:26:01.885Z,75.30
2018-06-22T14:28:28.738Z,78.00
2018-06-22T14:30:55.909Z,84.40
2018-06-22T14:33:23.550Z,83.80
2018-06-22T14:35:50.501Z,83.60
2018-06-22T14:38:17.295Z,83.80
2018-06-22T14:40:45.030Z,81.30
2018-06-22T14:43:12.377Z,81.30
2018-06-22T14:46:03.021Z,83.70
2018-06-22T14:48:29.814Z,86.10
2018-06-22T14:51:15.027Z,85.00
2018-06-22T14:53:47.700Z,87.30
2018-06-22T14:56:30.337Z,91.00
2018-06-22T14:59:13.524Z,90.90
2018-06-22T15:01:57.154Z,91.90
2018-06-22T15:04:39.780Z,93.40
2018-06-22T15:07:25.234Z,96.60
2018-06-22T15:09:52.054Z,96.60
2018-06-22T15:12:19.005Z,97.80
2018-06-22T15:14:46.061Z,99.20
2018-06-22T15:17:13.827Z,99.90
2018-06-22T15:19:40.781Z,99.90
2018-06-22T15:22:07.701Z,99.90
2018-06-22T15:24:34.621Z,99.90
2018-06-22T15:27:02.349Z,99.90
2018-06-22T15:29:29.196Z,99.90
2018-06-22T15:31:56.147Z,99.90
2018-06-22T15:37:33.132Z,99.90
2018-06-22T15:40:16.870Z,99.90
2018-06-22T15:42:59.660Z,99.90
2018-06-22T15:45:28.893Z,99.90
2018-06-22T15:48:03.211Z,99.90
2018-06-22T15:50:45.988Z,99.90
2018-06-22T15:53:31.063Z,99.90
2018-06-22T15:55:58.940Z,99.90
2018-06-22T15:58:27.726Z,99.90
2018-06-22T16:00:56.195Z,99.90
2018-06-22T16:03:30.759Z,99.90
2018-06-22T16:05:58.906Z,99.90
2018-06-22T16:08:27.220Z,99.90
2018-06-22T16:10:55.994Z,99.90
2018-06-22T16:13:24.756Z,99.90
2018-06-22T16:16:08.555Z,99.90
2018-06-22T16:18:52.265Z,99.90
2018-06-22T16:21:27.212Z,99.90
2018-06-22T16:24:11.455Z,99.90
2018-06-22T16:26:55.507Z,99.90
2018-06-22T16:29:22.983Z,99.90
2018-06-22T16:31:50.829Z,99.90
2018-06-22T16:34:19.820Z,99.90
2018-06-22T16:36:48.162Z,99.90
2018-06-22T16:39:17.222Z,99.90
2018-06-22T16:41:47.473Z,99.90
2018-06-22T16:44:15.880Z,99.90
2018-06-22T16:47:11.806Z,99.90
2018-06-22T16:49:46.387Z,99.90
2018-06-22T16:52:13.499Z,99.90
2018-06-22T16:54:40.347Z,99.90
2018-06-22T16:57:08.078Z,99.90
2018-06-22T16:59:34.964Z,99.90
2018-06-22T17:02:01.817Z,99.90
2018-06-22T17:04:28.659Z,99.90
2018-06-22T17:06:55.520Z,99.90
2018-06-22T17:09:38.336Z,99.90
2018-06-22T17:12:21.956Z,99.90
2018-06-22T17:15:05.689Z,99.90
2018-06-22T17:17:47.477Z,98.60
2018-06-22T17:20:14.325Z,94.90
2018-06-22T17:22:41.378Z,94.00
2018-06-22T17:25:08.226Z,96.00
2018-06-22T17:27:35.062Z,97.10
2018-06-22T17:30:01.925Z,95.80
2018-06-22T17:32:28.656Z,95.20
2018-06-22T17:34:55.624Z,94.00
2018-06-22T17:37:22.776Z,93.70
2018-06-22T17:39:50.037Z,94.50
2018-06-22T17:42:17.247Z,96.50
2018-06-22T17:44:44.743Z,93.50
2018-06-22T17:47:11.527Z,93.50
2018-06-22T17:49:38.293Z,94.30
2018-06-22T17:52:05.425Z,93.60
2018-06-22T17:54:32.264Z,93.40
2018-06-22T17:56:59.052Z,93.20
2018-06-22T17:59:26.164Z,95.20
2018-06-22T18:02:07.929Z,95.10
2018-06-22T18:04:35.309Z,96.20
2018-06-22T18:07:02.124Z,95.80
2018-06-22T18:09:28.957Z,94.60
2018-06-22T18:12:15.553Z,95.80
2018-06-22T18:14:42.451Z,97.10
2018-06-22T18:17:10.322Z,99.90
2018-06-22T18:19:37.274Z,99.90
2018-06-22T18:22:04.097Z,99.90
2018-06-22T18:24:30.854Z,99.90
2018-06-22T18:26:57.821Z,99.90
2018-06-22T18:29:24.669Z,99.90
2018-06-22T18:31:51.516Z,99.90
2018-06-22T18:34:18.479Z,99.90
2018-06-22T18:36:46.037Z,99.90
2018-06-22T18:39:12.984Z,99.90
2018-06-22T18:41:39.933Z,99.90
2018-06-22T18:44:06.782Z,99.90
2018-06-22T18:46:33.630Z,99.90
2018-06-22T18:49:01.197Z,99.90
2018-06-22T18:51:28.041Z,99.90
2018-06-22T18:54:01.341Z,99.90
2018-06-22T18:56:43.977Z,99.90
2018-06-22T18:59:18.471Z,99.90
2018-06-22T19:02:02.510Z,99.90
2018-06-22T19:04:30.178Z,99.90
2018-06-22T19:06:57.130Z,99.90
2018-06-22T19:09:24.079Z,99.90
2018-06-22T19:11:50.925Z,99.90
2018-06-22T19:14:17.882Z,99.90
2018-06-22T19:16:51.260Z,99.90
2018-06-22T19:19:43.216Z,99.90
2018-06-22T19:22:15.982Z,99.90
2018-06-22T19:24:43.751Z,99.90
2018-06-22T19:27:10.615Z,99.90
2018-06-22T19:29:37.775Z,99.90
2018-06-22T19:32:04.715Z,99.90
2018-06-22T19:34:31.556Z,99.90
2018-06-22T19:36:58.507Z,99.90
2018-06-22T19:39:25.357Z,99.90
2018-06-22T19:41:52.305Z,99.90
2018-06-22T19:44:35.327Z,99.90
2018-06-22T19:47:18.647Z,99.90
2018-06-22T19:50:05.555Z,99.90
2018-06-22T19:52:54.134Z,99.90
2018-06-22T19:55:21.458Z,99.90
2018-06-22T19:57:48.615Z,99.90
2018-06-22T20:03:12.610Z,99.90
2018-06-22T20:05:39.850Z,99.90
2018-06-22T20:08:07.731Z,99.90
2018-06-22T20:10:35.706Z,99.90
2018-06-22T20:13:02.499Z,99.90
2018-06-22T20:15:29.504Z,99.90
2018-06-22T20:17:56.439Z,99.90
2018-06-22T20:20:23.306Z,99.90
2018-06-22T20:22:50.415Z,99.90
2018-06-22T20:25:17.413Z,99.90
2018-06-22T20:27:44.360Z,99.90
2018-06-22T20:30:11.232Z,99.90
2018-06-22T20:32:38.160Z,99.90
2018-06-22T20:35:05.112Z,99.90
2018-06-22T20:37:48.852Z,99.90
2018-06-22T20:40:30.528Z,99.90
2018-06-22T20:42:57.785Z,99.90
2018-06-22T20:48:36.620Z,99.90
2018-06-22T20:51:03.735Z,99.90
2018-06-22T20:53:31.238Z,99.90
2018-06-22T20:55:58.802Z,99.90
2018-06-22T20:58:26.367Z,99.90
2018-06-22T21:00:53.216Z,99.90
2018-06-22T21:03:20.168Z,99.90
2018-06-22T21:05:47.221Z,99.90
2018-06-22T21:08:21.089Z,99.90
2018-06-22T21:10:51.297Z,99.90
2018-06-22T21:13:19.027Z,99.90
2018-06-22T21:15:47.561Z,99.90
2018-06-22T21:18:14.975Z,99.90
2018-06-22T21:20:42.338Z,99.90
2018-06-22T21:23:09.182Z,99.90
2018-06-22T21:25:36.036Z,99.90
2018-06-22T21:28:09.024Z,99.90
2018-06-22T21:30:51.488Z,99.90
2018-06-22T21:36:38.454Z,99.90
2018-06-22T21:39:06.609Z,99.90
2018-06-22T21:41:33.528Z,99.90
2018-06-22T21:44:00.752Z,99.90
2018-06-22T21:46:27.974Z,99.90
2018-06-22T21:48:54.924Z,99.90
2018-06-22T21:51:22.233Z,99.90
2018-06-22T21:53:50.060Z,99.90
2018-06-22T21:56:17.109Z,99.90
2018-06-22T21:58:44.060Z,99.90
2018-06-22T22:01:11.111Z,99.90
2018-06-22T22:03:38.473Z,99.90
2018-06-22T22:06:06.406Z,99.90
2018-06-22T22:08:34.162Z,99.90
2018-06-22T22:11:01.740Z,99.90
2018-06-22T22:13:28.653Z,99.90
2018-06-22T22:15:56.708Z,99.90
2018-06-22T22:18:23.916Z,99.90
2018-06-22T22:20:51.651Z,99.90
2018-06-22T22:23:18.688Z,99.90
2018-06-22T22:25:45.476Z,99.90
2018-06-22T22:28:13.351Z,99.90
2018-06-22T22:30:40.192Z,99.90
2018-06-22T22:33:07.527Z,99.90
2018-06-22T22:35:34.666Z,99.90
2018-06-22T22:38:03.893Z,99.90
2018-06-22T22:40:31.093Z,99.90
2018-06-22T22:42:59.224Z,99.90
2018-06-22T22:45:26.564Z,99.90
2018-06-22T22:47:56.119Z,99.90
2018-06-22T22:50:23.353Z,99.90
2018-06-22T22:52:51.597Z,99.90
2018-06-22T22:55:18.921Z,99.90
2018-06-22T22:57:46.382Z,99.90
2018-06-22T23:00:13.961Z,99.90
2018-06-22T23:02:43.748Z,99.90
2018-06-22T23:05:11.961Z,99.90
2018-06-22T23:07:39.765Z,99.90
2018-06-22T23:10:08.253Z,99.90
2018-06-22T23:12:35.330Z,99.90
2018-06-22T23:15:03.400Z,99.90
2018-06-22T23:17:31.623Z,99.90
2018-06-22T23:19:58.895Z,99.90
2018-06-22T23:22:27.327Z,99.90
2018-06-22T23:24:57.489Z,99.90
2018-06-22T23:27:25.323Z,99.90
2018-06-22T23:29:52.414Z,99.90
2018-06-22T23:32:20.029Z,99.90
2018-06-22T23:34:47.951Z,99.90
2018-06-22T23:37:15.015Z,99.90
2018-06-22T23:39:43.753Z,99.90
2018-06-22T23:42:11.385Z,99.90
2018-06-22T23:44:38.411Z,99.90
2018-06-22T23:47:05.763Z,99.90
2018-06-22T23:49:33.570Z,99.90
2018-06-22T23:52:01.344Z,99.90
2018-06-22T23:54:28.622Z,99.90
2018-06-22T23:56:55.873Z,99.90
2018-06-22T23:59:23.692Z,99.90
